Time;durP1;ratioP1;P1;durP2;ratioP2;P2;SDS_P1;SDS_P2;PMS_P1;PMS_P2;Temp;Humidity;BMP_temperature;BMP_pressure;BME280_temperature;BME280_humidity;BME280_pressure;Samples;Min_cycle;Max_cycle;Signal;HPM_P1;HPM_P2
2022/11/26 00:00:50;;;;;;;9.27;8.47;;;;;;;8.54;100.00;148190.56;5091649;28;20235;-59
2022/11/26 00:03:18;;;;;;;8.23;7.70;;;;;;;8.51;100.00;148184.25;5091441;28;20195;-59
2022/11/26 00:05:48;;;;;;;8.20;7.63;;;;;;;8.53;100.00;148189.28;5091396;28;20250;-60
2022/11/26 00:08:20;;;;;;;8.33;7.93;;;;;;;8.37;100.00;148147.63;5091489;28;20180;-59
2022/11/26 00:10:51;;;;;;;8.67;8.07;;;;;;;8.47;100.00;148174.16;5091337;28;20192;-59
2022/11/26 00:13:21;;;;;;;8.77;8.27;;;;;;;8.41;100.00;148157.72;5092396;28;20184;-60
2022/11/26 00:15:49;;;;;;;8.77;8.27;;;;;;;8.38;100.00;148151.44;5095035;28;20207;-60
2022/11/26 00:18:16;;;;;;;9.17;8.57;;;;;;;8.42;100.00;148160.28;5094849;28;20191;-59
2022/11/26 00:20:44;;;;;;;8.70;8.17;;;;;;;8.49;100.00;148179.19;5094822;28;20181;-60
2022/11/26 00:23:19;;;;;;;7.83;7.33;;;;;;;8.49;100.00;148179.19;5094852;28;20188;-60
2022/11/26 00:25:50;;;;;;;8.43;7.93;;;;;;;8.39;100.00;148152.72;5095113;28;20187;-59
2022/11/26 00:28:27;;;;;;;8.43;8.00;;;;;;;8.30;100.00;148131.25;5095263;28;20198;-59
2022/11/26 00:30:55;;;;;;;8.07;7.67;;;;;;;8.38;100.00;148151.44;5094786;28;20190;-60
2022/11/26 00:33:22;;;;;;;7.73;7.33;;;;;;;8.31;100.00;148133.81;5094977;28;20188;-60
2022/11/26 00:35:55;;;;;;;8.20;7.40;;;;;;;8.19;100.00;148103.44;5094768;28;20290;-60
2022/11/26 00:38:23;;;;;;;7.80;7.40;;;;;;;8.26;100.00;148122.38;5095145;28;20351;-60
2022/11/26 00:40:51;;;;;;;7.17;6.73;;;;;;;8.19;100.00;148103.44;5094744;28;20599;-59
2022/11/26 00:43:19;;;;;;;7.63;7.00;;;;;;;8.24;100.00;148116.06;5094463;28;20187;-59
2022/11/26 00:45:46;;;;;;;7.80;7.40;;;;;;;8.13;100.00;148089.59;5094461;28;20199;-60
2022/11/26 00:48:14;;;;;;;7.83;7.33;;;;;;;8.16;100.00;148095.88;5094520;28;20180;-58
2022/11/26 00:50:44;;;;;;;8.53;8.03;;;;;;;8.12;100.00;148085.78;5094638;28;20635;-59
2022/11/26 00:53:13;;;;;;;7.57;7.00;;;;;;;8.16;100.00;148095.88;5094528;28;20211;-60
2022/11/26 00:55:42;;;;;;;7.20;6.83;;;;;;;8.04;100.00;148066.88;5094891;28;20192;-60
2022/11/26 00:58:22;;;;;;;7.77;7.27;;;;;;;7.97;100.00;148047.97;5094191;28;20180;-59
2022/11/26 01:00:49;;;;;;;7.87;7.27;;;;;;;8.02;100.00;148061.81;5094486;28;20211;-60
2022/11/26 01:03:16;;;;;;;7.17;6.87;;;;;;;7.95;100.00;148044.16;5094415;28;20199;-59
2022/11/26 01:05:43;;;;;;;7.50;7.10;;;;;;;7.97;100.00;148049.22;5094316;28;20184;-60
2022/11/26 01:08:20;;;;;;;8.80;8.30;;;;;;;8.01;100.00;148059.31;5094300;28;20642;-60
2022/11/26 01:10:47;;;;;;;8.27;7.77;;;;;;;7.99;100.00;148054.25;5094199;28;20661;-60
2022/11/26 01:13:15;;;;;;;8.57;8.10;;;;;;;7.98;100.00;148050.44;5093893;28;20184;-60
2022/11/26 01:15:42;;;;;;;8.67;8.27;;;;;;;7.98;100.00;148050.44;5094022;28;20563;-59
2022/11/26 01:18:13;;;;;;;8.27;7.70;;;;;;;7.90;100.00;148030.28;5093662;28;20188;-60
2022/11/26 01:20:40;;;;;;;8.57;7.97;;;;;;;7.97;100.00;148047.97;5093699;28;20192;-59
2022/11/26 01:23:11;;;;;;;9.57;8.97;;;;;;;7.92;100.00;148035.34;5094541;28;20650;-61
2022/11/26 01:25:38;;;;;;;8.27;7.87;;;;;;;7.91;100.00;148032.81;5092729;28;20184;-59
2022/11/26 01:28:06;;;;;;;9.07;8.67;;;;;;;7.64;100.00;147967.22;5093806;28;20184;-61
2022/11/26 01:30:34;;;;;;;8.93;8.33;;;;;;;7.85;100.00;148017.69;5093856;28;20207;-60
2022/11/26 01:33:01;;;;;;;9.40;8.80;;;;;;;7.79;100.00;148003.81;5093459;28;20184;-60
2022/11/26 01:35:28;;;;;;;9.23;8.63;;;;;;;7.74;100.00;147991.19;5093639;28;20210;-60
2022/11/26 01:37:55;;;;;;;9.33;8.70;;;;;;;7.68;100.00;147976.09;5093585;28;20257;-60
2022/11/26 01:40:53;;;;;;;10.37;9.73;;;;;;;7.53;100.00;147939.50;5093658;28;20188;-60
2022/11/26 01:43:26;;;;;;;9.23;8.63;;;;;;;7.52;100.00;147936.97;5093234;28;20245;-60
2022/11/26 01:45:55;;;;;;;9.27;8.67;;;;;;;7.46;100.00;147920.59;5093106;28;20229;-59
2022/11/26 01:48:29;;;;;;;8.23;7.83;;;;;;;7.62;100.00;147962.19;5093287;28;20666;-60
2022/11/26 01:50:59;;;;;;;9.00;8.50;;;;;;;7.55;100.00;147944.56;5093109;28;20188;-60
2022/11/26 01:53:34;;;;;;;8.50;8.00;;;;;;;7.68;100.00;147977.31;5093421;28;20614;-59
2022/11/26 01:56:06;;;;;;;8.17;7.77;;;;;;;7.68;100.00;147977.31;5093426;28;20210;-59
2022/11/26 01:58:37;;;;;;;8.13;7.53;;;;;;;7.72;100.00;147986.16;5092926;28;20184;-60
2022/11/26 02:01:05;;;;;;;8.60;8.10;;;;;;;7.76;100.00;147996.25;5093163;28;20559;-59
2022/11/26 02:03:38;;;;;;;7.50;7.10;;;;;;;7.70;100.00;147981.09;5093192;28;20194;-59
2022/11/26 02:06:11;;;;;;;9.00;8.10;;;;;;;7.73;100.00;147988.66;5093172;28;20649;-60
2022/11/26 02:08:38;;;;;;;9.20;8.47;;;;;;;7.96;100.00;148045.44;5092891;28;20287;-59
2022/11/26 02:11:17;;;;;;;8.73;8.13;;;;;;;7.94;100.00;148040.34;5092760;28;20198;-60
2022/11/26 02:13:46;;;;;;;9.27;8.77;;;;;;;7.48;100.00;147926.88;5092610;28;20192;-60
2022/11/26 02:16:24;;;;;;;9.20;8.70;;;;;;;7.44;100.00;147916.78;5092931;28;20204;-59
2022/11/26 02:19:06;;;;;;;8.20;7.80;;;;;;;7.30;100.00;147882.75;5092878;28;20180;-59
2022/11/26 02:21:36;;;;;;;9.33;8.67;;;;;;;7.21;100.00;147860.03;5092853;28;20184;-59
2022/11/26 02:24:35;;;;;;;9.03;8.53;;;;;;;7.19;100.00;147853.75;5092791;28;20195;-60
2022/11/26 02:27:37;;;;;;;8.37;7.93;;;;;;;7.14;100.00;147841.16;5092919;28;20205;-61
2022/11/26 02:30:07;;;;;;;8.77;8.10;;;;;;;7.02;100.00;147810.91;5082168;28;20199;-59
2022/11/26 02:32:47;;;;;;;8.97;8.37;;;;;;;6.97;100.00;147799.56;5092642;28;20203;-59
2022/11/26 02:35:20;;;;;;;8.30;7.83;;;;;;;6.98;100.00;147800.81;5092625;28;20194;-59
2022/11/26 02:37:51;;;;;;;8.80;8.27;;;;;;;6.97;100.00;147798.28;5092133;28;20293;-59
2022/11/26 02:40:19;;;;;;;9.43;8.87;;;;;;;7.10;100.00;147831.06;5092540;28;20648;-60
2022/11/26 02:42:45;;;;;;;8.60;7.87;;;;;;;7.17;100.00;147848.75;5092425;28;20199;-59
2022/11/26 02:45:17;;;;;;;8.93;8.43;;;;;;;6.99;100.00;147804.63;5092122;28;20184;-60
2022/11/26 02:47:47;;;;;;;8.77;7.97;;;;;;;6.97;100.00;147799.56;5092434;28;20562;-59
2022/11/26 02:50:19;;;;;;;8.57;8.17;;;;;;;7.10;100.00;147832.31;5091975;28;20227;-60
2022/11/26 02:52:48;;;;;;;9.17;8.60;;;;;;;6.74;100.00;147742.88;5092485;28;20190;-61
2022/11/26 02:55:18;;;;;;;8.97;8.27;;;;;;;7.00;100.00;147805.88;5092418;28;20200;-59
2022/11/26 02:57:48;;;;;;;9.37;8.67;;;;;;;7.18;100.00;147852.50;5092188;28;20208;-59
2022/11/26 03:00:18;;;;;;;8.97;8.37;;;;;;;7.25;100.00;147868.91;5092033;28;20191;-58
2022/11/26 03:02:48;;;;;;;9.00;8.50;;;;;;;7.24;100.00;147866.38;5092251;28;20188;-59
2022/11/26 03:05:17;;;;;;;8.23;7.73;;;;;;;7.20;100.00;147856.28;5092223;28;20192;-60
2022/11/26 03:07:46;;;;;;;9.23;8.63;;;;;;;7.04;100.00;147817.22;5092013;28;20180;-59
2022/11/26 03:10:20;;;;;;;8.70;8.10;;;;;;;6.55;100.00;147694.97;5092611;28;20638;-60
2022/11/26 03:12:47;;;;;;;9.17;8.37;;;;;;;6.88;100.00;147778.13;5091947;28;20265;-60
2022/11/26 03:15:14;;;;;;;8.73;8.23;;;;;;;6.72;100.00;147736.56;5092058;28;20180;-61
2022/11/26 03:17:43;;;;;;;9.27;8.67;;;;;;;6.88;100.00;147778.13;5092190;28;20674;-61
2022/11/26 03:20:10;;;;;;;9.50;8.80;;;;;;;6.85;100.00;147769.31;5092084;28;20192;-60
2022/11/26 03:22:37;;;;;;;9.50;8.83;;;;;;;6.94;100.00;147792.00;5092267;28;20241;-60
2022/11/26 03:25:04;;;;;;;9.43;8.83;;;;;;;6.91;100.00;147783.19;5092008;28;20188;-59
2022/11/26 03:27:33;;;;;;;9.33;8.73;;;;;;;6.97;100.00;147798.28;5092355;28;20623;-59
2022/11/26 03:30:00;;;;;;;9.33;8.73;;;;;;;7.04;100.00;147817.22;5091731;28;20279;-59
2022/11/26 03:32:27;;;;;;;9.80;9.10;;;;;;;7.09;100.00;147828.53;5091623;28;20184;-59
2022/11/26 03:34:55;;;;;;;9.33;8.73;;;;;;;7.19;100.00;147855.03;5091637;28;20183;-59
2022/11/26 03:37:22;;;;;;;8.53;8.03;;;;;;;7.28;100.00;147877.72;5091838;28;20681;-59
2022/11/26 03:39:49;;;;;;;9.50;8.53;;;;;;;7.10;100.00;147831.06;5091834;28;20196;-59
2022/11/26 03:42:16;;;;;;;8.97;8.47;;;;;;;7.25;100.00;147868.91;5091886;28;20203;-60
2022/11/26 03:44:43;;;;;;;9.03;8.33;;;;;;;7.32;100.00;147886.53;5091498;28;20195;-60
2022/11/26 03:47:10;;;;;;;8.77;8.33;;;;;;;7.24;100.00;147866.38;5091896;28;20663;-59
2022/11/26 03:49:37;;;;;;;8.50;8.00;;;;;;;7.21;100.00;147858.81;5094797;28;20234;-59
2022/11/26 03:52:05;;;;;;;8.63;8.23;;;;;;;7.15;100.00;147844.94;5095717;28;20565;-60
2022/11/26 03:54:32;;;;;;;9.23;8.63;;;;;;;7.11;100.00;147833.59;5095623;28;20207;-60
2022/11/26 03:56:59;;;;;;;9.30;8.60;;;;;;;7.05;100.00;147819.72;5095559;28;20208;-59
2022/11/26 03:59:26;;;;;;;9.47;8.87;;;;;;;7.01;100.00;147808.38;5095332;28;20191;-59
2022/11/26 04:01:53;;;;;;;9.40;8.90;;;;;;;7.13;100.00;147838.66;5095261;28;20188;-61
2022/11/26 04:04:20;;;;;;;8.97;8.47;;;;;;;7.16;100.00;147847.47;5095201;28;20196;-60
2022/11/26 04:06:47;;;;;;;9.13;8.27;;;;;;;7.33;100.00;147889.06;5095144;28;20181;-59
2022/11/26 04:09:15;;;;;;;9.80;9.00;;;;;;;7.42;100.00;147911.78;5095438;28;20207;-59
2022/11/26 04:11:42;;;;;;;9.37;8.67;;;;;;;7.44;100.00;147916.78;5095359;28;20188;-59
2022/11/26 04:14:09;;;;;;;10.10;9.23;;;;;;;7.54;100.00;147940.75;5095002;28;20195;-60
2022/11/26 04:16:36;;;;;;;9.07;8.37;;;;;;;7.47;100.00;147923.13;5095169;28;20653;-59
2022/11/26 04:19:02;;;;;;;8.07;7.57;;;;;;;7.53;100.00;147939.50;5095149;28;20184;-60
2022/11/26 04:21:29;;;;;;;8.60;8.20;;;;;;;7.46;100.00;147921.84;5095132;28;20556;-59
2022/11/26 04:23:56;;;;;;;8.83;8.20;;;;;;;7.48;100.00;147926.88;5095070;28;20698;-59
2022/11/26 04:26:25;;;;;;;9.30;8.57;;;;;;;7.46;100.00;147921.84;5094836;28;20192;-59
2022/11/26 04:28:51;;;;;;;9.03;8.07;;;;;;;7.27;100.00;147875.19;5094624;28;20180;-59
2022/11/26 04:31:18;;;;;;;9.10;8.30;;;;;;;7.34;100.00;147891.59;5094716;28;20217;-59
2022/11/26 04:33:45;;;;;;;9.07;8.47;;;;;;;7.49;100.00;147928.13;5094616;28;20187;-59
2022/11/26 04:36:12;;;;;;;8.70;8.00;;;;;;;7.43;100.00;147914.25;5094852;28;20631;-60
2022/11/26 04:38:39;;;;;;;9.30;8.70;;;;;;;7.35;100.00;147894.09;5094381;28;20204;-61
2022/11/26 04:41:06;;;;;;;8.90;8.30;;;;;;;7.40;100.00;147906.72;5094742;28;20546;-60
2022/11/26 04:43:34;;;;;;;9.50;8.60;;;;;;;7.40;100.00;147906.72;5094784;28;20207;-59
2022/11/26 04:46:01;;;;;;;9.57;8.87;;;;;;;7.31;100.00;147885.28;5094669;28;20190;-59
2022/11/26 04:48:28;;;;;;;9.53;8.83;;;;;;;7.22;100.00;147861.31;5094478;28;20285;-59
2022/11/26 04:50:55;;;;;;;8.63;8.20;;;;;;;7.09;100.00;147828.53;5094548;28;20612;-62
2022/11/26 04:53:22;;;;;;;9.13;8.20;;;;;;;7.24;100.00;147866.38;5094304;28;20180;-59
2022/11/26 04:55:50;;;;;;;8.83;8.27;;;;;;;7.16;100.00;147846.22;5094634;28;20511;-60
2022/11/26 04:58:17;;;;;;;9.30;8.67;;;;;;;7.14;100.00;147841.16;5094428;28;20571;-60
2022/11/26 05:00:45;;;;;;;10.10;8.73;;;;;;;7.18;100.00;147851.22;5092865;28;20192;-59
2022/11/26 05:03:12;;;;;;;9.67;9.07;;;;;;;7.22;100.00;147861.31;5094409;28;20562;-59
2022/11/26 05:05:40;;;;;;;9.80;9.00;;;;;;;7.20;100.00;147857.56;5093914;28;20192;-60
2022/11/26 05:08:07;;;;;;;12.97;8.83;;;;;;;7.24;100.00;147866.38;5094252;28;20176;-59
2022/11/26 05:10:34;;;;;;;9.50;8.80;;;;;;;7.26;100.00;147871.41;5094236;28;20180;-60
2022/11/26 05:13:01;;;;;;;9.63;9.00;;;;;;;7.23;100.00;147863.84;5094262;28;20192;-61
2022/11/26 05:15:27;;;;;;;10.17;9.53;;;;;;;7.17;100.00;147848.75;5094119;28;20184;-60
2022/11/26 05:17:56;;;;;;;9.60;9.00;;;;;;;7.14;100.00;147841.16;5094018;28;20231;-60
2022/11/26 05:20:23;;;;;;;9.77;9.10;;;;;;;7.09;100.00;147828.53;5093996;28;20188;-59
2022/11/26 05:22:50;;;;;;;8.80;8.30;;;;;;;7.08;100.00;147826.03;5093586;28;20265;-60
2022/11/26 05:25:16;;;;;;;9.43;8.53;;;;;;;7.01;100.00;147809.63;5093640;28;20184;-59
2022/11/26 05:27:43;;;;;;;9.23;8.70;;;;;;;7.00;100.00;147807.09;5093860;28;20189;-59
2022/11/26 05:30:11;;;;;;;9.20;8.60;;;;;;;7.01;100.00;147808.38;5093314;28;20202;-59
2022/11/26 05:32:38;;;;;;;13.13;9.60;;;;;;;6.93;100.00;147789.47;5093735;28;20554;-60
2022/11/26 05:35:07;;;;;;;10.73;8.47;;;;;;;6.74;100.00;147742.88;5093456;28;20184;-60
2022/11/26 05:37:34;;;;;;;9.07;8.37;;;;;;;6.98;100.00;147800.81;5093879;28;20208;-60
2022/11/26 05:40:01;;;;;;;8.77;8.17;;;;;;;6.95;100.00;147793.28;5093491;28;20560;-59
2022/11/26 05:42:28;;;;;;;9.50;8.77;;;;;;;6.94;100.00;147792.00;5093651;28;20184;-60
2022/11/26 05:44:55;;;;;;;10.33;8.57;;;;;;;7.04;100.00;147815.97;5093461;28;20631;-61
2022/11/26 05:47:22;;;;;;;12.50;9.77;;;;;;;7.06;100.00;147822.25;5093600;28;20177;-59
2022/11/26 05:49:49;;;;;;;10.83;9.80;;;;;;;7.10;100.00;147831.06;5093273;28;20228;-59
2022/11/26 05:52:17;;;;;;;10.53;9.73;;;;;;;7.16;100.00;147846.22;5093418;28;20184;-60
2022/11/26 05:54:46;;;;;;;11.30;9.33;;;;;;;7.07;100.00;147824.78;5093451;28;20214;-60
2022/11/26 05:57:13;;;;;;;8.87;8.37;;;;;;;7.30;100.00;147881.47;5093351;28;20238;-60
2022/11/26 05:59:40;;;;;;;10.00;9.20;;;;;;;7.51;100.00;147933.22;5092948;28;20669;-60
2022/11/26 06:02:07;;;;;;;8.63;8.03;;;;;;;7.84;100.00;148016.44;5093192;28;20635;-59
2022/11/26 06:04:34;;;;;;;8.77;8.27;;;;;;;8.16;100.00;148097.13;5092912;28;20199;-62
2022/11/26 06:07:00;;;;;;;9.47;8.57;;;;;;;8.44;100.00;148166.59;5092786;28;20194;-60
2022/11/26 06:09:29;;;;;;;10.27;8.80;;;;;;;8.71;100.00;148234.72;5092893;28;20191;-60
2022/11/26 06:11:55;;;;;;;13.77;9.47;;;;;;;9.20;100.00;148355.94;5092360;28;20188;-60
2022/11/26 06:14:22;;;;;;;9.73;8.83;;;;;;;9.50;100.00;148431.72;5092717;28;20191;-61
2022/11/26 06:16:49;;;;;;;8.83;7.97;;;;;;;9.81;100.00;148507.47;5092551;28;20186;-60
2022/11/26 06:19:16;;;;;;;8.57;7.77;;;;;;;9.64;100.00;148467.03;5092526;28;20200;-60
2022/11/26 06:21:43;;;;;;;8.27;7.77;;;;;;;9.66;100.00;148470.84;5092675;28;20195;-60
2022/11/26 06:24:10;;;;;;;8.57;8.10;;;;;;;9.60;100.00;148456.94;5092771;28;20571;-60
2022/11/26 06:26:38;;;;;;;8.53;8.03;;;;;;;9.57;100.00;148448.09;5092414;28;20180;-60
2022/11/26 06:29:05;;;;;;;9.77;9.10;;;;;;;9.62;100.00;148462.03;5092411;28;20275;-59
2022/11/26 06:31:32;;;;;;;11.50;10.43;;;;;;;9.71;100.00;148482.22;5092427;28;20181;-60
2022/11/26 06:34:01;;;;;;;15.67;11.00;;;;;;;9.50;100.00;148431.72;5093008;28;20714;-60
2022/11/26 06:36:28;;;;;;;10.70;9.70;;;;;;;9.30;100.00;148379.91;5092620;28;20184;-59
2022/11/26 06:38:56;;;;;;;18.73;9.77;;;;;;;8.97;100.00;148297.84;5092490;28;20677;-58
2022/11/26 06:41:23;;;;;;;10.37;8.17;;;;;;;8.67;100.00;148224.63;5092212;28;20191;-59
2022/11/26 06:43:51;;;;;;;15.70;9.23;;;;;;;8.77;100.00;148248.63;5092312;28;20600;-61
2022/11/26 06:46:18;;;;;;;10.23;9.33;;;;;;;8.73;100.00;148237.25;5090912;28;20270;-60
2022/11/26 06:48:45;;;;;;;10.27;9.47;;;;;;;8.63;100.00;148214.53;5092174;28;20690;-61
2022/11/26 06:51:14;;;;;;;14.63;10.63;;;;;;;8.59;100.00;148204.44;5092255;28;20184;-60
2022/11/26 06:53:41;;;;;;;12.73;11.27;;;;;;;8.65;100.00;148218.34;5091906;28;20199;-59
2022/11/26 06:56:12;;;;;;;9.17;8.57;;;;;;;8.57;100.00;148198.16;5092252;28;20215;-60
2022/11/26 06:58:39;;;;;;;12.43;8.33;;;;;;;8.62;100.00;148212.00;5091978;28;20306;-60
2022/11/26 07:01:10;;;;;;;12.60;11.33;;;;;;;8.69;100.00;148228.44;5091931;28;20192;-59
2022/11/26 07:03:37;;;;;;;9.80;8.93;;;;;;;8.77;100.00;148247.34;5091997;28;20196;-60
2022/11/26 07:06:04;;;;;;;10.10;9.20;;;;;;;9.03;100.00;148313.00;5091866;28;20195;-60
2022/11/26 07:08:31;;;;;;;10.27;9.57;;;;;;;9.47;100.00;148422.81;5091937;28;20188;-60
2022/11/26 07:11:02;;;;;;;8.40;7.73;;;;;;;9.98;100.00;148550.41;5091807;28;20183;-60
2022/11/26 07:13:29;;;;;;;9.67;8.67;;;;;;;11.20;100.00;148856.34;5091816;28;20188;-60
2022/11/26 07:15:55;;;;;;;8.67;7.87;;;;;;;12.48;100.00;149175.25;5092052;28;20184;-60
2022/11/26 07:18:24;;;;;;;8.53;7.77;;;;;;;13.27;92.68;149374.16;5091655;28;20218;-60
2022/11/26 07:20:51;;;;;;;8.97;8.03;;;;;;;14.25;83.48;149618.72;5091821;28;20191;-61
2022/11/26 07:23:18;;;;;;;9.00;8.40;;;;;;;15.16;76.03;149848.28;5092839;28;20184;-60
2022/11/26 07:25:45;;;;;;;9.13;8.33;;;;;;;15.26;75.07;149872.41;5096318;28;20551;-60
2022/11/26 07:28:12;;;;;;;8.53;8.13;;;;;;;15.67;72.47;149976.50;5095944;28;20186;-60
2022/11/26 07:30:39;;;;;;;9.00;8.37;;;;;;;17.02;67.58;150315.53;5094942;28;20748;-60
2022/11/26 07:33:07;;;;;;;8.40;7.83;;;;;;;17.47;62.06;150428.66;5095848;28;20194;-60
2022/11/26 07:35:35;;;;;;;7.73;7.33;;;;;;;17.97;59.56;150554.50;5096171;28;20546;-59
2022/11/26 07:38:02;;;;;;;7.77;7.23;;;;;;;17.77;59.27;150504.97;5095608;28;20207;-60
2022/11/26 07:40:29;;;;;;;8.00;7.50;;;;;;;18.34;57.59;150647.31;5094840;28;20188;-61
2022/11/26 07:42:56;;;;;;;7.77;7.40;;;;;;;18.35;56.45;150649.88;5095579;28;20195;-60
2022/11/26 07:45:22;;;;;;;7.37;6.97;;;;;;;17.97;55.71;150553.22;5095908;28;20192;-60
2022/11/26 07:47:49;;;;;;;7.20;6.70;;;;;;;18.22;56.98;150618.06;5096001;28;20188;-61
2022/11/26 07:50:16;;;;;;;7.83;7.23;;;;;;;19.13;55.20;150845.81;5095284;28;20227;-60
2022/11/26 07:52:45;;;;;;;6.80;6.50;;;;;;;19.96;52.10;151054.56;5095742;28;20562;-61
2022/11/26 07:55:12;;;;;;;7.73;7.40;;;;;;;20.23;49.96;151123.31;5095775;28;20581;-60
2022/11/26 07:57:39;;;;;;;10.47;7.30;;;;;;;19.60;50.76;150965.44;5095482;28;20183;-61
2022/11/26 08:00:08;;;;;;;7.93;7.50;;;;;;;20.48;49.70;151185.75;5094100;28;20191;-61
2022/11/26 08:02:35;;;;;;;8.83;8.30;;;;;;;19.63;50.25;150971.81;5095546;28;20184;-60
2022/11/26 08:05:02;;;;;;;7.80;7.40;;;;;;;19.69;50.70;150985.84;5095707;28;20222;-61
2022/11/26 08:07:29;;;;;;;10.37;8.23;;;;;;;19.53;50.66;150946.34;5095279;28;20184;-59
2022/11/26 08:09:57;;;;;;;8.27;7.77;;;;;;;19.29;51.41;150886.50;5095128;28;20190;-60
2022/11/26 08:12:24;;;;;;;9.23;8.50;;;;;;;19.27;50.59;150880.13;5095352;28;20627;-61
2022/11/26 08:14:51;;;;;;;9.83;9.13;;;;;;;19.38;50.42;150908.16;5095405;28;20639;-60
2022/11/26 08:17:18;;;;;;;10.10;8.33;;;;;;;19.00;51.87;150812.72;5094954;28;20192;-60
2022/11/26 08:19:45;;;;;;;9.10;8.40;;;;;;;18.92;51.89;150792.38;5095012;28;20227;-60
2022/11/26 08:22:12;;;;;;;10.63;9.47;;;;;;;18.08;54.27;150581.19;5094973;28;20192;-60
2022/11/26 08:24:39;;;;;;;8.73;8.23;;;;;;;18.13;54.67;150595.19;5094816;28;20220;-61
2022/11/26 08:27:07;;;;;;;9.43;8.50;;;;;;;18.33;55.50;150643.53;5095072;28;20192;-60
2022/11/26 08:29:36;;;;;;;10.67;8.67;;;;;;;19.37;53.22;150905.59;5095002;28;20192;-61
2022/11/26 08:32:03;;;;;;;8.97;8.27;;;;;;;19.33;52.48;150895.41;5094675;28;20184;-60
2022/11/26 08:34:30;;;;;;;8.77;8.27;;;;;;;20.05;50.76;151077.47;5094393;28;20275;-61
2022/11/26 08:36:57;;;;;;;9.37;8.67;;;;;;;20.58;49.00;151209.97;5094975;28;20313;-60
2022/11/26 08:39:24;;;;;;;9.15;8.43;;;;;;;20.08;49.96;151085.09;5094738;28;20204;-60
2022/11/26 08:41:52;;;;;;;8.85;8.45;;;;;;;21.50;47.03;151441.88;5094787;28;20184;-59
2022/11/26 08:44:20;;;;;;;8.32;7.55;;;;;;;22.09;45.19;151592.34;5094918;28;20187;-60
2022/11/26 08:46:47;;;;;;;8.70;8.10;;;;;;;23.47;44.36;151939.34;5094526;28;20187;-60
2022/11/26 08:49:15;;;;;;;10.30;8.30;;;;;;;23.29;42.41;151894.69;5094288;28;20235;-62
2022/11/26 08:51:43;;;;;;;8.50;8.05;;;;;;;21.83;44.90;151526.00;5094386;28;20188;-60
2022/11/26 08:54:10;;;;;;;8.93;8.38;;;;;;;21.91;44.61;151546.38;5094564;28;20192;-60
2022/11/26 08:56:37;;;;;;;8.40;7.97;;;;;;;21.66;46.24;151482.66;5094555;28;20195;-61
2022/11/26 08:59:04;;;;;;;7.88;7.53;;;;;;;22.52;44.23;151700.72;5094386;28;20662;-61
2022/11/26 09:01:33;;;;;;;8.15;7.65;;;;;;;21.93;44.73;151551.53;5094267;28;20199;-60
2022/11/26 09:04:01;;;;;;;8.32;7.72;;;;;;;21.83;45.12;151527.25;5094457;28;20665;-60
2022/11/26 09:06:31;;;;;;;8.05;7.55;;;;;;;22.23;45.19;151628.06;5094385;28;20249;-61
2022/11/26 09:09:16;;;;;;;8.32;7.93;;;;;;;23.83;42.50;152030.00;5093947;28;20188;-60
2022/11/26 09:11:47;;;;;;;7.63;7.32;;;;;;;25.12;40.65;152355.72;5094349;28;20639;-60
2022/11/26 09:14:15;;;;;;;8.70;7.95;;;;;;;25.70;38.50;152502.72;5094207;28;20623;-60
2022/11/26 09:16:44;;;;;;;8.40;7.85;;;;;;;25.22;38.54;152382.53;5094100;28;20207;-60
2022/11/26 09:19:14;;;;;;;7.72;7.32;;;;;;;25.77;38.31;152521.88;5093662;28;20261;-59
2022/11/26 09:21:41;;;;;;;8.02;7.72;;;;;;;26.61;36.98;152734.13;5094055;28;20188;-60
2022/11/26 09:24:08;;;;;;;10.77;7.80;;;;;;;26.37;36.64;152672.75;5094086;28;20566;-60
2022/11/26 09:26:35;;;;;;;9.20;8.57;;;;;;;27.12;36.15;152862.06;5093799;28;20627;-61
2022/11/26 09:29:02;;;;;;;8.00;7.45;;;;;;;25.32;36.98;152406.81;5093514;28;20275;-61
2022/11/26 09:31:30;;;;;;;8.82;8.27;;;;;;;24.09;39.24;152096.38;5093801;28;20574;-60
2022/11/26 09:34:00;;;;;;;9.32;8.52;;;;;;;22.73;40.71;151753.06;5093814;28;20192;-59
2022/11/26 09:36:27;;;;;;;8.60;7.90;;;;;;;23.29;41.04;151893.41;5093670;28;20180;-60
2022/11/26 09:38:55;;;;;;;8.27;7.88;;;;;;;21.78;43.37;151513.22;5093331;28;20211;-59
2022/11/26 09:41:38;;;;;;;8.05;7.53;;;;;;;22.03;43.32;151575.75;5093416;28;20181;-60
2022/11/26 09:44:21;;;;;;;8.38;7.72;;;;;;;21.91;42.47;151545.09;5093352;28;20184;-60
2022/11/26 09:46:54;;;;;;;7.93;7.35;;;;;;;21.67;43.49;151485.22;5092799;28;20188;-60
2022/11/26 09:49:23;;;;;;;9.90;8.35;;;;;;;21.97;43.19;151561.75;5093129;28;20231;-60
2022/11/26 09:51:53;;;;;;;8.25;7.85;;;;;;;23.20;41.34;151873.00;5093512;28;20184;-60
2022/11/26 09:54:22;;;;;;;8.10;7.30;;;;;;;23.78;40.01;152018.50;5093479;28;20210;-60
2022/11/26 09:56:54;;;;;;;7.60;7.15;;;;;;;23.26;40.47;151885.72;5093295;28;20632;-59
2022/11/26 09:59:22;;;;;;;7.68;7.28;;;;;;;23.94;39.58;152059.34;5092949;28;20200;-60
2022/11/26 10:01:49;;;;;;;8.10;7.70;;;;;;;24.31;38.76;152152.63;5093065;28;20184;-60
2022/11/26 10:04:22;;;;;;;6.40;6.10;;;;;;;22.81;39.25;151773.47;5092977;28;20596;-60
2022/11/26 10:07:00;;;;;;;6.93;6.53;;;;;;;23.66;39.41;151987.88;5093146;28;20233;-60
2022/11/26 10:09:40;;;;;;;6.78;6.47;;;;;;;24.46;37.89;152189.63;5092966;28;20188;-61
2022/11/26 10:12:20;;;;;;;6.97;6.68;;;;;;;25.37;37.04;152419.63;5093205;28;20183;-60
2022/11/26 10:14:57;;;;;;;7.47;7.18;;;;;;;24.38;37.73;152169.19;5093095;28;20187;-60
2022/11/26 10:17:35;;;;;;;7.15;6.85;;;;;;;24.19;38.17;152120.69;5092998;28;20211;-59
2022/11/26 10:20:28;;;;;;;7.28;6.88;;;;;;;24.80;38.15;152276.47;5092883;28;20230;-60
2022/11/26 10:23:00;;;;;;;7.28;6.88;;;;;;;26.43;35.42;152688.13;5092609;28;20199;-60
2022/11/26 10:25:31;;;;;;;6.65;6.35;;;;;;;26.91;34.46;152809.63;5092786;28;20190;-60
2022/11/26 10:27:59;;;;;;;6.60;6.30;;;;;;;26.43;34.51;152688.13;5092509;28;20192;-60
2022/11/26 10:30:28;;;;;;;6.78;6.47;;;;;;;25.41;35.09;152429.84;5091573;28;20180;-59
2022/11/26 10:32:59;;;;;;;6.28;6.07;;;;;;;24.29;36.44;152146.19;5092600;28;20188;-60
2022/11/26 10:35:28;;;;;;;6.55;6.15;;;;;;;23.78;37.23;152018.50;5092915;28;20215;-60
2022/11/26 10:37:57;;;;;;;6.75;6.20;;;;;;;23.06;38.69;151837.25;5092625;28;20635;-60
2022/11/26 10:40:26;;;;;;;6.65;6.13;;;;;;;23.57;38.67;151966.19;5092311;28;20199;-60
2022/11/26 10:43:02;;;;;;;8.45;7.18;;;;;;;23.67;38.40;151990.44;5092328;28;20192;-61
2022/11/26 10:45:37;;;;;;;6.60;6.30;;;;;;;23.61;38.91;151975.09;5092388;28;20180;-60
2022/11/26 10:48:32;;;;;;;7.38;6.68;;;;;;;25.23;36.78;152385.09;5092412;28;20187;-59
2022/11/26 10:51:03;;;;;;;6.50;6.20;;;;;;;24.66;36.25;152239.41;5056994;28;20214;-60
2022/11/26 10:53:36;;;;;;;6.43;6.13;;;;;;;24.56;36.32;152215.19;5092511;28;20555;-61
2022/11/26 10:56:06;;;;;;;5.57;5.38;;;;;;;25.43;35.56;152436.19;5092437;28;20184;-61
2022/11/26 10:58:41;;;;;;;6.70;6.40;;;;;;;26.29;35.09;152653.59;5092044;28;20188;-59
2022/11/26 11:01:12;;;;;;;5.85;5.55;;;;;;;27.26;34.08;152897.91;5092030;28;20187;-60
2022/11/26 11:03:49;;;;;;;6.35;5.95;;;;;;;26.03;34.57;152585.78;5091957;28;20279;-60
2022/11/26 11:06:35;;;;;;;6.05;5.78;;;;;;;25.71;35.17;152505.28;5091942;28;20184;-60
2022/11/26 11:09:23;;;;;;;6.00;5.80;;;;;;;25.26;35.08;152392.75;5092456;28;20581;-59
2022/11/26 11:12:15;;;;;;;5.82;5.53;;;;;;;24.53;36.63;152207.47;5091797;28;20184;-59
2022/11/26 11:14:42;;;;;;;5.90;5.60;;;;;;;24.07;37.44;152091.25;5092094;28;20635;-60
2022/11/26 11:17:29;;;;;;;5.90;5.70;;;;;;;24.50;36.17;152199.84;5091622;28;20192;-61
2022/11/26 11:19:57;;;;;;;6.30;5.90;;;;;;;23.53;37.00;151954.69;5090810;28;20211;-61
2022/11/26 11:22:24;;;;;;;6.40;5.88;;;;;;;21.90;40.17;151543.81;5091775;28;20195;-60
2022/11/26 11:24:52;;;;;;;6.40;6.03;;;;;;;20.14;42.70;151099.13;5092005;28;20184;-59
2022/11/26 11:27:24;;;;;;;6.25;5.95;;;;;;;18.22;46.99;150618.06;5091904;28;20559;-60
2022/11/26 11:29:52;;;;;;;6.00;5.67;;;;;;;17.16;52.38;150351.13;5091879;28;20180;-60
2022/11/26 11:32:37;;;;;;;6.50;6.10;;;;;;;16.12;57.06;150089.47;5091729;28;20195;-60
2022/11/26 11:35:23;;;;;;;5.87;5.47;;;;;;;15.56;60.62;149947.31;5091520;28;20187;-60